createdAt,value
2018-11-21T00:00:16.649Z,26.20
2018-11-21T00:02:45.637Z,25.50
2018-11-21T00:05:14.631Z,25.27
2018-11-21T00:07:43.563Z,26.23
2018-11-21T00:10:13.584Z,27.77
2018-11-21T00:12:47.255Z,27.93
2018-11-21T00:15:16.040Z,26.73
2018-11-21T00:17:44.818Z,27.20
2018-11-21T00:20:13.700Z,28.17
2018-11-21T00:22:42.471Z,26.40
2018-11-21T00:25:11.915Z,25.33
2018-11-21T00:27:40.951Z,26.80
2018-11-21T00:30:12.548Z,27.60
2018-11-21T00:32:41.362Z,28.27
2018-11-21T00:35:11.290Z,26.00
2018-11-21T00:37:40.173Z,27.77
2018-11-21T00:40:11.681Z,27.20
2018-11-21T00:42:46.378Z,29.80
2018-11-21T00:45:09.954Z,28.40
2018-11-21T00:47:38.855Z,29.00
2018-11-21T00:50:07.965Z,29.03
2018-11-21T00:52:36.981Z,28.43
2018-11-21T00:55:06.594Z,28.87
2018-11-21T00:57:35.453Z,28.57
2018-11-21T01:00:05.467Z,29.63
2018-11-21T01:02:34.232Z,29.63
2018-11-21T01:05:03.128Z,29.40
2018-11-21T01:07:32.417Z,29.30
2018-11-21T01:10:01.463Z,28.03
2018-11-21T01:12:30.452Z,28.47
2018-11-21T01:14:59.245Z,28.50
2018-11-21T01:17:28.008Z,26.67
2018-11-21T01:19:57.706Z,27.80
2018-11-21T01:22:26.445Z,30.17
2018-11-21T01:24:55.698Z,27.30
2018-11-21T01:27:24.419Z,29.40
2018-11-21T01:29:53.519Z,28.33
2018-11-21T01:32:22.218Z,29.63
2018-11-21T01:34:50.967Z,28.53
2018-11-21T01:37:19.708Z,31.00
2018-11-21T01:39:48.815Z,29.00
2018-11-21T01:42:17.825Z,31.00
2018-11-21T01:44:46.811Z,29.23
2018-11-21T01:47:15.545Z,30.60
2018-11-21T01:49:44.313Z,28.80
2018-11-21T01:52:13.108Z,27.93
2018-11-21T01:54:41.972Z,28.90
2018-11-21T01:57:10.723Z,28.30
2018-11-21T01:59:39.641Z,27.47
2018-11-21T02:02:08.504Z,30.60
2018-11-21T02:04:37.426Z,29.80
2018-11-21T02:07:06.444Z,28.00
2018-11-21T02:09:35.256Z,30.37
2018-11-21T02:12:04.045Z,30.73
2018-11-21T02:14:32.876Z,29.97
2018-11-21T02:17:01.869Z,30.77
2018-11-21T02:19:30.615Z,30.50
2018-11-21T02:21:59.467Z,30.33
2018-11-21T02:24:28.477Z,30.23
2018-11-21T02:26:57.543Z,29.40
2018-11-21T02:29:26.374Z,31.73
2018-11-21T02:31:55.285Z,29.53
2018-11-21T02:34:24.247Z,31.83
2018-11-21T02:36:53.169Z,30.33
2018-11-21T02:39:22.644Z,31.23
2018-11-21T02:41:51.403Z,29.00
2018-11-21T02:44:20.158Z,29.90
2018-11-21T02:46:49.031Z,30.20
2018-11-21T02:49:17.816Z,31.07
2018-11-21T02:51:46.997Z,28.30
2018-11-21T02:54:15.770Z,29.93
2018-11-21T02:57:19.610Z,30.93
2018-11-21T02:59:49.901Z,30.10
2018-11-21T03:02:18.794Z,31.07
2018-11-21T03:04:47.535Z,30.00
2018-11-21T03:07:16.319Z,28.47
2018-11-21T03:09:45.059Z,32.20
2018-11-21T03:12:13.847Z,29.53
2018-11-21T03:14:42.644Z,32.13
2018-11-21T03:17:11.580Z,31.57
2018-11-21T03:19:40.376Z,31.87
2018-11-21T03:22:09.230Z,31.70
2018-11-21T03:24:37.988Z,32.80
2018-11-21T03:27:06.836Z,30.70
2018-11-21T03:29:35.707Z,29.97
2018-11-21T03:32:05.271Z,31.23
2018-11-21T03:34:34.409Z,32.20
2018-11-21T03:37:03.815Z,31.20
2018-11-21T03:39:32.642Z,30.07
2018-11-21T03:42:01.454Z,30.37
2018-11-21T03:44:30.213Z,29.67
2018-11-21T03:46:58.944Z,29.90
2018-11-21T03:49:27.811Z,29.30
2018-11-21T03:51:56.652Z,30.93
2018-11-21T03:54:25.664Z,30.93
2018-11-21T03:56:54.482Z,31.63
2018-11-21T03:59:23.315Z,33.33
2018-11-21T04:01:55.186Z,31.13
2018-11-21T04:04:23.991Z,30.20
2018-11-21T04:06:52.881Z,30.13
2018-11-21T04:09:21.669Z,31.30
2018-11-21T04:11:50.433Z,29.93
2018-11-21T04:14:19.255Z,34.73
2018-11-21T04:16:48.585Z,33.50
2018-11-21T04:19:17.428Z,32.03
2018-11-21T04:21:46.297Z,33.13
2018-11-21T04:24:15.333Z,31.93
2018-11-21T04:26:44.142Z,35.10
2018-11-21T04:29:12.930Z,32.33
2018-11-21T04:31:41.946Z,32.87
2018-11-21T04:34:10.713Z,31.67
2018-11-21T04:36:39.471Z,32.67
2018-11-21T04:39:10.435Z,32.67
2018-11-21T04:41:39.492Z,32.30
2018-11-21T04:44:08.244Z,31.63
2018-11-21T04:46:37.284Z,30.40
2018-11-21T04:49:06.541Z,35.07
2018-11-21T04:51:35.348Z,35.70
2018-11-21T04:54:04.753Z,32.33
2018-11-21T04:56:33.507Z,31.23
2018-11-21T04:59:02.669Z,33.37
2018-11-21T05:01:33.681Z,32.97
2018-11-21T05:04:02.479Z,34.57
2018-11-21T05:06:31.259Z,33.37
2018-11-21T05:09:02.257Z,33.40
2018-11-21T05:11:31.013Z,33.90
2018-11-21T05:13:59.771Z,33.97
2018-11-21T05:16:35.656Z,33.27
2018-11-21T05:19:09.661Z,32.37
2018-11-21T05:21:38.406Z,33.77
2018-11-21T05:24:07.159Z,34.70
2018-11-21T05:26:36.036Z,33.33
2018-11-21T05:29:05.112Z,34.37
2018-11-21T05:31:33.971Z,32.10
2018-11-21T05:34:02.713Z,31.00
2018-11-21T05:36:31.492Z,33.07
2018-11-21T05:39:00.233Z,32.40
2018-11-21T05:41:28.955Z,33.37
2018-11-21T05:43:57.704Z,33.43
2018-11-21T05:46:30.317Z,32.53
2018-11-21T05:48:59.179Z,33.03
2018-11-21T05:51:27.949Z,32.00
2018-11-21T05:53:56.825Z,32.40
2018-11-21T05:56:25.951Z,32.43
2018-11-21T05:58:55.015Z,32.30
2018-11-21T06:01:23.784Z,33.87
2018-11-21T06:03:52.626Z,32.90
2018-11-21T06:06:25.440Z,34.27
2018-11-21T06:08:55.180Z,35.73
2018-11-21T06:11:26.818Z,35.43
2018-11-21T06:14:00.591Z,35.17
2018-11-21T06:16:29.498Z,37.20
2018-11-21T06:18:58.255Z,35.80
2018-11-21T06:21:29.093Z,35.90
2018-11-21T06:23:57.955Z,38.20
2018-11-21T06:26:26.752Z,37.07
2018-11-21T06:28:58.332Z,39.33
2018-11-21T06:31:30.852Z,38.07
2018-11-21T06:34:05.428Z,35.57
2018-11-21T06:36:34.237Z,36.23
2018-11-21T06:39:03.137Z,36.83
2018-11-21T06:41:31.971Z,35.30
2018-11-21T06:44:00.844Z,34.97
2018-11-21T06:46:31.252Z,38.70
2018-11-21T06:49:05.671Z,38.10
2018-11-21T06:51:35.323Z,36.60
2018-11-21T06:54:03.493Z,37.53
2018-11-21T06:56:32.549Z,38.03
2018-11-21T06:59:01.473Z,36.50
2018-11-21T07:01:30.443Z,34.60
2018-11-21T07:03:59.512Z,36.10
2018-11-21T07:06:29.328Z,34.30
2018-11-21T07:09:00.077Z,34.17
2018-11-21T07:11:29.278Z,37.60
2018-11-21T07:13:58.890Z,36.47
2018-11-21T07:16:27.670Z,37.57
2018-11-21T07:18:56.452Z,33.63
2018-11-21T07:21:25.383Z,36.07
2018-11-21T07:23:54.246Z,35.13
2018-11-21T07:26:24.481Z,37.70
2018-11-21T07:28:52.084Z,36.73
2018-11-21T07:31:21.022Z,37.73
2018-11-21T07:33:50.352Z,35.80
2018-11-21T07:36:19.169Z,36.47
2018-11-21T07:38:48.390Z,37.00
2018-11-21T07:41:17.940Z,36.87
2018-11-21T07:43:47.341Z,39.90
2018-11-21T07:46:16.098Z,33.07
2018-11-21T07:48:45.232Z,35.40
2018-11-21T07:51:14.037Z,35.87
2018-11-21T07:53:42.853Z,36.00
2018-11-21T07:57:11.063Z,38.63
2018-11-21T07:59:57.550Z,38.70
2018-11-21T08:02:31.833Z,36.23
2018-11-21T08:05:06.230Z,38.63
2018-11-21T08:07:43.451Z,38.93
2018-11-21T08:10:30.097Z,37.50
2018-11-21T08:13:36.948Z,37.67
2018-11-21T08:16:37.305Z,35.40
2018-11-21T08:19:24.628Z,36.37
2018-11-21T08:22:18.396Z,35.13
2018-11-21T08:25:04.909Z,38.10
2018-11-21T08:27:52.946Z,39.33
2018-11-21T08:30:22.045Z,37.10
2018-11-21T08:32:51.061Z,36.53
2018-11-21T08:35:20.214Z,38.10
2018-11-21T08:37:49.856Z,34.80
2018-11-21T08:40:18.971Z,34.87
2018-11-21T08:42:48.395Z,36.33
2018-11-21T08:45:17.415Z,38.47
2018-11-21T08:47:46.228Z,37.77
2018-11-21T08:50:15.229Z,37.63
2018-11-21T08:52:44.072Z,38.60
2018-11-21T08:55:12.998Z,37.20
2018-11-21T08:57:42.176Z,35.20
2018-11-21T09:00:13.502Z,39.30
2018-11-21T09:02:42.476Z,35.60
2018-11-21T09:05:11.657Z,39.43
2018-11-21T09:07:41.757Z,38.30
2018-11-21T09:10:15.455Z,35.63
2018-11-21T09:12:44.213Z,37.07
2018-11-21T09:15:14.650Z,38.50
2018-11-21T09:17:44.191Z,37.90
2018-11-21T09:20:14.976Z,40.53
2018-11-21T09:22:43.760Z,38.53
2018-11-21T09:25:13.039Z,37.80
2018-11-21T09:27:42.427Z,37.27
2018-11-21T09:30:16.324Z,38.30
2018-11-21T09:32:46.449Z,38.10
2018-11-21T09:35:17.294Z,40.63
2018-11-21T09:37:51.603Z,38.00
2018-11-21T09:40:21.766Z,37.93
2018-11-21T09:42:52.352Z,37.47
2018-11-21T09:45:22.267Z,35.93
2018-11-21T09:47:53.305Z,40.90
2018-11-21T09:50:26.497Z,37.37
2018-11-21T09:52:55.303Z,39.00
2018-11-21T09:55:24.412Z,36.07
2018-11-21T09:57:56.092Z,35.10
2018-11-21T10:01:18.744Z,37.40
2018-11-21T10:03:49.756Z,33.93
2018-11-21T10:06:27.833Z,36.47
2018-11-21T10:08:58.613Z,34.60
2018-11-21T10:11:28.526Z,35.93
2018-11-21T10:13:57.899Z,37.77
2018-11-21T10:16:31.710Z,34.60
2018-11-21T10:19:00.998Z,35.63
2018-11-21T10:21:32.154Z,36.43
2018-11-21T10:24:01.022Z,37.40
2018-11-21T10:26:29.861Z,35.00
2018-11-21T10:28:58.875Z,33.83
2018-11-21T10:31:28.131Z,34.20
2018-11-21T10:33:56.904Z,36.10
2018-11-21T10:36:35.151Z,35.33
2018-11-21T10:39:07.259Z,35.40
2018-11-21T10:41:39.564Z,35.43
2018-11-21T10:44:08.678Z,34.33
2018-11-21T10:46:37.783Z,36.63
2018-11-21T10:49:07.345Z,38.77
2018-11-21T10:51:43.374Z,36.60
2018-11-21T10:54:15.215Z,38.03
2018-11-21T10:56:49.602Z,36.33
2018-11-21T10:59:24.087Z,36.47
2018-11-21T11:02:11.316Z,36.83
2018-11-21T11:05:13.349Z,36.87
2018-11-21T11:08:02.490Z,36.60
2018-11-21T11:10:48.681Z,37.63
2018-11-21T11:13:40.534Z,37.90
2018-11-21T11:16:31.597Z,37.50
2018-11-21T11:19:37.551Z,35.57
2018-11-21T11:22:31.240Z,35.67
2018-11-21T11:25:20.556Z,36.80
2018-11-21T11:28:07.575Z,39.40
2018-11-21T11:31:02.489Z,37.10
2018-11-21T11:33:59.348Z,35.80
2018-11-21T11:36:51.893Z,36.43
2018-11-21T11:39:49.509Z,40.13
2018-11-21T11:42:42.325Z,38.90
2018-11-21T11:45:29.156Z,36.83
2018-11-21T11:48:17.511Z,36.80
2018-11-21T11:51:20.289Z,34.23
2018-11-21T11:54:09.041Z,35.97
2018-11-21T11:56:43.628Z,36.23
2018-11-21T11:59:32.250Z,36.40
2018-11-21T12:02:20.755Z,34.57
2018-11-21T12:05:01.553Z,36.70
2018-11-21T12:07:49.609Z,35.80
2018-11-21T12:10:34.900Z,33.10
2018-11-21T12:13:21.660Z,35.80
2018-11-21T12:16:12.732Z,38.40
2018-11-21T12:19:02.477Z,34.70
2018-11-21T12:21:49.159Z,36.80
2018-11-21T12:24:46.226Z,39.70
2018-11-21T12:27:40.387Z,35.00
2018-11-21T12:30:25.866Z,37.60
2018-11-21T12:33:16.837Z,37.20
2018-11-21T12:36:10.959Z,38.83
2018-11-21T12:39:18.430Z,37.10
2018-11-21T12:42:07.169Z,34.97
2018-11-21T12:45:00.204Z,38.83
2018-11-21T12:47:47.442Z,37.67
2018-11-21T12:50:36.936Z,38.60
2018-11-21T12:53:23.868Z,37.40
2018-11-21T12:56:10.371Z,39.67
2018-11-21T12:58:50.204Z,39.87
2018-11-21T13:01:53.561Z,37.10
2018-11-21T13:04:35.619Z,37.97
2018-11-21T13:07:41.501Z,37.40
2018-11-21T13:10:32.319Z,38.07
2018-11-21T13:13:25.917Z,35.90
2018-11-21T13:16:14.748Z,37.17
2018-11-21T13:19:01.201Z,38.60
2018-11-21T13:21:37.466Z,40.93
2018-11-21T13:24:15.993Z,40.33
2018-11-21T13:27:15.731Z,43.90
2018-11-21T13:30:01.114Z,39.00
2018-11-21T13:32:51.868Z,41.80
2018-11-21T13:35:40.400Z,41.20
2018-11-21T13:38:27.150Z,41.93
2018-11-21T13:41:12.993Z,42.80
2018-11-21T13:44:07.762Z,39.37
2018-11-21T13:46:58.595Z,40.90
2018-11-21T13:49:55.506Z,38.77
2018-11-21T13:52:49.691Z,43.57
2018-11-21T13:55:19.257Z,38.40
2018-11-21T13:57:48.402Z,40.10
2018-11-21T14:00:17.245Z,40.67
2018-11-21T14:02:46.432Z,40.43
2018-11-21T14:05:18.379Z,38.87
2018-11-21T14:07:47.218Z,39.60
2018-11-21T14:10:23.489Z,39.77
2018-11-21T14:12:54.369Z,37.93
2018-11-21T14:15:23.309Z,39.03
2018-11-21T14:17:52.002Z,38.67
2018-11-21T14:20:21.179Z,40.50
2018-11-21T14:22:49.991Z,39.03
2018-11-21T14:25:19.013Z,36.00
2018-11-21T14:27:55.302Z,37.60
2018-11-21T14:30:24.832Z,38.60
2018-11-21T14:32:56.544Z,39.90
2018-11-21T14:35:25.338Z,35.53
2018-11-21T14:37:59.826Z,40.00
2018-11-21T14:40:33.860Z,41.50
2018-11-21T14:43:11.011Z,38.27
2018-11-21T14:45:40.165Z,33.57
2018-11-21T14:48:14.300Z,38.57
2018-11-21T14:50:44.836Z,37.27
2018-11-21T14:53:17.153Z,37.53
2018-11-21T14:55:46.664Z,36.10
2018-11-21T14:58:15.438Z,35.03
2018-11-21T15:00:44.304Z,36.07
2018-11-21T15:03:18.318Z,34.03
2018-11-21T15:05:42.146Z,36.90
2018-11-21T15:08:11.135Z,35.07
2018-11-21T15:10:42.921Z,36.40
2018-11-21T15:13:11.714Z,33.67
2018-11-21T15:15:40.549Z,32.17
2018-11-21T15:18:09.337Z,34.60
2018-11-21T15:20:38.357Z,35.20
2018-11-21T15:23:10.005Z,32.57
2018-11-21T15:25:39.791Z,31.80
2018-11-21T15:28:11.681Z,31.67
2018-11-21T15:30:40.728Z,31.47
2018-11-21T15:33:09.791Z,36.07
2018-11-21T15:35:38.854Z,34.93
2018-11-21T15:38:07.784Z,31.17
2018-11-21T15:40:36.544Z,32.87
2018-11-21T15:43:05.523Z,30.50
2018-11-21T15:45:34.328Z,28.60
